Pierceville, KS

1:17 AM CDT on April 29, 2017 (GMT -0500)
Garden City Regional | | Change Station
Active Advisory: Winter Storm Watch

Elev 2890 ft 37.93 °N, 100.72 °W | Updated 4 minutes ago

Rain
Rain Mist
37 °F
Feels Like 26 °F
N
22
Wind Variable Wind from NNE
Gusts 32 mph

Today
High -- | Low -- °F
--% Chance of Precip.
Yesterday
High -- | Low -- °F
Precip. -- in
Pressure 29.91 in
Visibility 4.0 miles
Clouds Scattered Clouds 700 ft
Mostly Cloudy 1200 ft
Overcast 3800 ft
Windchill 26 °F
Dew Point 35 °F
Humidity 93%
Rainfall 0.08 in
Snow Depth Not available.
6:48 AM 8:32 PM
Waxing Crescent, 11% visible
SPECI KGCK 290613Z AUTO 03019G28KT 4SM RA BR SCT007 BKN012 OVC038 03/02 A2991 RMK AO2 PK WND 04031/0603 P0003 T00280017
Pressure 29.91 in
Visibility 4.0 miles
Clouds Scattered Clouds 700 ft
Mostly Cloudy 1200 ft
Overcast 3800 ft
Windchill 26 °F
Dew Point 35 °F
Humidity 93%
Rainfall 0.08 in
Snow Depth Not available.
6:48 AM 8:32 PM
Waxing Crescent, 11% visible
SPECI KGCK 290613Z AUTO 03019G28KT 4SM RA BR SCT007 BKN012 OVC038 03/02 A2991 RMK AO2 PK WND 04031/0603 P0003 T00280017

Get Your Daily Forecast Email!

Thanks for signing up!

Be on the lookout for a verification email in your inbox.

You'll start receiving severe weather alerts in your inbox..

×

10-Day Weather Forecast

Almanac

Astronomy

Apr. 29, 2017 Rise Set
Actual Time
Civil Twilight
Nautical Twilight
Astronomical Twilight
Moon
Length of Visible Light
Length of Day
Tomorrow will be .
, % of the Moon is Illuminated

Today's Extremes

State Highs State Lows

Community

WunderPhotos

WunderBlog® & News

Nearby

Air Quality

  Air Quality AQ Index Pollutant
Not available.

Snow Depth

Station Depth Elevation

Earthquake Activity

City Distance Mag. Time & Date
Minimum magnitude displayed is 2.5.

Coastal Water Temperatures

Place Temperature

Stations

Nearby Weather Stations

Station Location Temp. Windchill Dew Point Humidity Wind Precip. Elev Updated Type
                   

Watches & Warnings

Winter Storm Watch
Issued: 9:53 PM CDT Apr. 28, 2017 – National Weather Service

... Winter Storm Watch remains in effect from 7 am CDT Saturday
through Sunday evening...

* timing... beginning Saturday evening. Heaviest snow during the
day Sunday.

* Snow accumulation... 3 to 7 inches.

* Wind... north at 25 to 40 mph, gusting to 55 mph Sunday.

* Main impact... significant impacts likely! Expect some tree
limb damage due to loading on trees from heavy, wet snow.
Lateral wind Load will exacerbate loading issues on vulnerable
trees with significant foliage. Some power interruptions
possible.

Precautionary/preparedness actions...

A Winter Storm Watch means there is a potential for significant
snow... sleet... or ice accumulations that may impact travel.
Continue to monitor the latest forecasts.